sensor_id;sensor_type;location;lat;lon;timestamp;P1;durP1;ratioP1;P2;durP2;ratioP2
55330;SDS011;58851;42.984;20.336;2024-03-22T00:02:02;58.17;;;40.80;;
55330;SDS011;58851;42.984;20.336;2024-03-22T00:04:28;65.75;;;44.85;;
55330;SDS011;58851;42.984;20.336;2024-03-22T00:06:53;73.45;;;50.47;;
55330;SDS011;58851;42.984;20.336;2024-03-22T00:09:19;83.72;;;53.90;;
55330;SDS011;58851;42.984;20.336;2024-03-22T00:11:45;81.03;;;49.55;;
55330;SDS011;58851;42.984;20.336;2024-03-22T00:14:11;71.15;;;44.47;;
55330;SDS011;58851;42.984;20.336;2024-03-22T00:16:37;71.97;;;46.28;;
55330;SDS011;58851;42.984;20.336;2024-03-22T00:19:03;66.22;;;40.70;;
55330;SDS011;58851;42.984;20.336;2024-03-22T00:21:29;62.70;;;36.80;;
55330;SDS011;58851;42.984;20.336;2024-03-22T00:23:56;48.10;;;29.42;;
55330;SDS011;58851;42.984;20.336;2024-03-22T00:26:22;45.58;;;28.70;;
55330;SDS011;58851;42.984;20.336;2024-03-22T00:28:48;46.50;;;29.38;;
55330;SDS011;58851;42.984;20.336;2024-03-22T00:31:15;47.92;;;33.15;;
55330;SDS011;58851;42.984;20.336;2024-03-22T00:33:44;54.05;;;32.58;;
55330;SDS011;58851;42.984;20.336;2024-03-22T00:36:10;44.95;;;27.90;;
55330;SDS011;58851;42.984;20.336;2024-03-22T00:38:36;47.67;;;30.88;;
55330;SDS011;58851;42.984;20.336;2024-03-22T00:41:01;61.33;;;35.92;;
55330;SDS011;58851;42.984;20.336;2024-03-22T00:43:27;73.90;;;43.92;;
55330;SDS011;58851;42.984;20.336;2024-03-22T00:45:53;66.53;;;39.83;;
55330;SDS011;58851;42.984;20.336;2024-03-22T00:48:19;84.53;;;46.47;;
55330;SDS011;58851;42.984;20.336;2024-03-22T00:50:45;81.05;;;48.42;;
55330;SDS011;58851;42.984;20.336;2024-03-22T00:53:11;75.90;;;47.60;;
55330;SDS011;58851;42.984;20.336;2024-03-22T00:55:37;144.48;;;78.10;;
55330;SDS011;58851;42.984;20.336;2024-03-22T00:58:03;145.82;;;74.65;;
55330;SDS011;58851;42.984;20.336;2024-03-22T01:00:29;244.27;;;126.38;;
55330;SDS011;58851;42.984;20.336;2024-03-22T01:02:55;135.35;;;78.55;;
55330;SDS011;58851;42.984;20.336;2024-03-22T01:05:21;82.45;;;51.33;;
55330;SDS011;58851;42.984;20.336;2024-03-22T01:07:46;86.70;;;47.47;;
55330;SDS011;58851;42.984;20.336;2024-03-22T01:10:12;109.25;;;56.22;;
55330;SDS011;58851;42.984;20.336;2024-03-22T01:12:39;44.75;;;28.48;;
55330;SDS011;58851;42.984;20.336;2024-03-22T01:15:05;42.67;;;24.50;;
55330;SDS011;58851;42.984;20.336;2024-03-22T01:17:32;43.50;;;24.73;;
55330;SDS011;58851;42.984;20.336;2024-03-22T01:19:59;50.67;;;28.95;;
55330;SDS011;58851;42.984;20.336;2024-03-22T01:22:25;50.33;;;31.17;;
55330;SDS011;58851;42.984;20.336;2024-03-22T01:24:50;57.45;;;34.20;;
55330;SDS011;58851;42.984;20.336;2024-03-22T01:27:16;59.05;;;36.25;;
55330;SDS011;58851;42.984;20.336;2024-03-22T01:29:42;34.92;;;24.65;;
55330;SDS011;58851;42.984;20.336;2024-03-22T01:32:08;35.40;;;21.15;;
55330;SDS011;58851;42.984;20.336;2024-03-22T01:34:34;34.50;;;22.13;;
55330;SDS011;58851;42.984;20.336;2024-03-22T01:37:00;37.25;;;22.88;;
55330;SDS011;58851;42.984;20.336;2024-03-22T01:39:26;37.35;;;23.30;;
55330;SDS011;58851;42.984;20.336;2024-03-22T01:41:52;34.72;;;22.58;;
55330;SDS011;58851;42.984;20.336;2024-03-22T01:44:17;36.22;;;23.67;;
55330;SDS011;58851;42.984;20.336;2024-03-22T01:46:44;51.15;;;31.15;;
55330;SDS011;58851;42.984;20.336;2024-03-22T01:49:12;34.00;;;20.60;;
55330;SDS011;58851;42.984;20.336;2024-03-22T01:51:40;30.25;;;17.58;;
55330;SDS011;58851;42.984;20.336;2024-03-22T01:54:08;24.48;;;15.93;;
55330;SDS011;58851;42.984;20.336;2024-03-22T01:56:38;21.60;;;14.55;;
55330;SDS011;58851;42.984;20.336;2024-03-22T01:59:05;22.05;;;14.55;;
55330;SDS011;58851;42.984;20.336;2024-03-22T02:01:31;27.63;;;17.77;;
55330;SDS011;58851;42.984;20.336;2024-03-22T02:03:58;36.60;;;22.33;;
55330;SDS011;58851;42.984;20.336;2024-03-22T02:06:24;50.13;;;28.00;;
55330;SDS011;58851;42.984;20.336;2024-03-22T02:08:50;67.10;;;36.78;;
55330;SDS011;58851;42.984;20.336;2024-03-22T02:11:16;56.30;;;32.45;;
55330;SDS011;58851;42.984;20.336;2024-03-22T02:13:41;60.03;;;32.33;;
55330;SDS011;58851;42.984;20.336;2024-03-22T02:16:10;58.03;;;36.25;;
55330;SDS011;58851;42.984;20.336;2024-03-22T02:18:36;57.17;;;30.00;;
55330;SDS011;58851;42.984;20.336;2024-03-22T02:21:02;59.72;;;34.55;;
55330;SDS011;58851;42.984;20.336;2024-03-22T02:26:01;79.85;;;42.72;;
55330;SDS011;58851;42.984;20.336;2024-03-22T02:28:27;70.00;;;40.67;;
55330;SDS011;58851;42.984;20.336;2024-03-22T02:30:53;65.95;;;37.58;;
55330;SDS011;58851;42.984;20.336;2024-03-22T02:33:19;64.47;;;36.60;;
55330;SDS011;58851;42.984;20.336;2024-03-22T02:35:48;66.53;;;42.80;;
55330;SDS011;58851;42.984;20.336;2024-03-22T02:38:15;58.45;;;40.15;;
55330;SDS011;58851;42.984;20.336;2024-03-22T02:40:42;49.22;;;34.15;;
55330;SDS011;58851;42.984;20.336;2024-03-22T02:43:09;49.78;;;33.55;;
55330;SDS011;58851;42.984;20.336;2024-03-22T02:45:35;44.45;;;30.45;;
55330;SDS011;58851;42.984;20.336;2024-03-22T02:48:01;42.78;;;26.38;;
55330;SDS011;58851;42.984;20.336;2024-03-22T02:50:27;38.35;;;25.83;;
55330;SDS011;58851;42.984;20.336;2024-03-22T02:52:52;46.85;;;31.70;;
55330;SDS011;58851;42.984;20.336;2024-03-22T02:55:18;47.13;;;32.15;;
55330;SDS011;58851;42.984;20.336;2024-03-22T02:57:44;51.92;;;32.45;;
55330;SDS011;58851;42.984;20.336;2024-03-22T03:00:10;48.70;;;30.15;;
55330;SDS011;58851;42.984;20.336;2024-03-22T03:02:36;49.70;;;30.60;;
55330;SDS011;58851;42.984;20.336;2024-03-22T03:05:02;46.38;;;29.73;;
55330;SDS011;58851;42.984;20.336;2024-03-22T03:07:28;48.33;;;31.00;;
55330;SDS011;58851;42.984;20.336;2024-03-22T03:09:54;59.45;;;33.83;;
55330;SDS011;58851;42.984;20.336;2024-03-22T03:12:20;94.82;;;42.10;;
55330;SDS011;58851;42.984;20.336;2024-03-22T03:14:46;82.70;;;39.22;;
55330;SDS011;58851;42.984;20.336;2024-03-22T03:17:12;70.72;;;34.53;;
55330;SDS011;58851;42.984;20.336;2024-03-22T03:19:37;67.78;;;32.08;;
55330;SDS011;58851;42.984;20.336;2024-03-22T03:22:03;60.50;;;31.67;;
55330;SDS011;58851;42.984;20.336;2024-03-22T03:24:29;82.57;;;39.75;;
55330;SDS011;58851;42.984;20.336;2024-03-22T03:26:55;37.17;;;23.25;;
55330;SDS011;58851;42.984;20.336;2024-03-22T03:29:21;28.42;;;19.85;;
55330;SDS011;58851;42.984;20.336;2024-03-22T03:31:47;29.17;;;18.83;;
55330;SDS011;58851;42.984;20.336;2024-03-22T03:34:14;28.00;;;20.52;;
55330;SDS011;58851;42.984;20.336;2024-03-22T03:36:40;39.28;;;23.27;;
55330;SDS011;58851;42.984;20.336;2024-03-22T03:39:05;39.58;;;24.90;;
55330;SDS011;58851;42.984;20.336;2024-03-22T03:41:31;32.80;;;21.05;;
55330;SDS011;58851;42.984;20.336;2024-03-22T03:43:57;67.75;;;30.88;;
55330;SDS011;58851;42.984;20.336;2024-03-22T03:46:23;55.55;;;30.02;;
55330;SDS011;58851;42.984;20.336;2024-03-22T03:48:49;61.67;;;32.63;;
55330;SDS011;58851;42.984;20.336;2024-03-22T03:51:14;52.92;;;32.50;;
55330;SDS011;58851;42.984;20.336;2024-03-22T03:53:40;60.97;;;31.70;;
55330;SDS011;58851;42.984;20.336;2024-03-22T03:56:06;59.13;;;34.90;;
55330;SDS011;58851;42.984;20.336;2024-03-22T03:58:32;72.88;;;37.50;;
55330;SDS011;58851;42.984;20.336;2024-03-22T04:00:58;60.00;;;35.15;;
55330;SDS011;58851;42.984;20.336;2024-03-22T04:03:23;53.63;;;32.85;;
55330;SDS011;58851;42.984;20.336;2024-03-22T04:05:56;49.60;;;30.40;;
55330;SDS011;58851;42.984;20.336;2024-03-22T04:08:23;56.03;;;34.08;;
55330;SDS011;58851;42.984;20.336;2024-03-22T04:10:54;116.45;;;56.95;;
55330;SDS011;58851;42.984;20.336;2024-03-22T04:13:23;90.88;;;43.38;;
55330;SDS011;58851;42.984;20.336;2024-03-22T04:15:50;60.92;;;33.53;;
55330;SDS011;58851;42.984;20.336;2024-03-22T04:18:16;65.38;;;36.75;;
55330;SDS011;58851;42.984;20.336;2024-03-22T04:20:42;88.25;;;47.35;;
55330;SDS011;58851;42.984;20.336;2024-03-22T04:23:17;71.38;;;42.15;;
55330;SDS011;58851;42.984;20.336;2024-03-22T04:25:51;86.20;;;48.92;;
55330;SDS011;58851;42.984;20.336;2024-03-22T04:28:18;122.80;;;62.47;;
55330;SDS011;58851;42.984;20.336;2024-03-22T04:30:53;111.25;;;56.38;;
55330;SDS011;58851;42.984;20.336;2024-03-22T04:33:26;67.75;;;38.25;;
55330;SDS011;58851;42.984;20.336;2024-03-22T04:35:53;50.67;;;32.65;;
55330;SDS011;58851;42.984;20.336;2024-03-22T04:38:19;53.42;;;32.35;;
55330;SDS011;58851;42.984;20.336;2024-03-22T04:40:45;47.72;;;29.88;;
55330;SDS011;58851;42.984;20.336;2024-03-22T04:43:11;44.78;;;30.83;;
55330;SDS011;58851;42.984;20.336;2024-03-22T04:45:37;55.55;;;32.05;;
55330;SDS011;58851;42.984;20.336;2024-03-22T04:48:03;48.72;;;30.10;;
55330;SDS011;58851;42.984;20.336;2024-03-22T04:50:30;42.97;;;27.73;;
55330;SDS011;58851;42.984;20.336;2024-03-22T04:52:56;43.15;;;25.90;;
55330;SDS011;58851;42.984;20.336;2024-03-22T04:55:22;43.88;;;24.75;;
55330;SDS011;58851;42.984;20.336;2024-03-22T04:57:48;47.10;;;27.17;;
55330;SDS011;58851;42.984;20.336;2024-03-22T05:00:14;42.35;;;26.40;;
55330;SDS011;58851;42.984;20.336;2024-03-22T05:02:40;45.10;;;27.33;;
55330;SDS011;58851;42.984;20.336;2024-03-22T05:05:06;43.83;;;28.80;;
55330;SDS011;58851;42.984;20.336;2024-03-22T05:07:35;53.45;;;32.22;;
55330;SDS011;58851;42.984;20.336;2024-03-22T05:10:01;47.78;;;33.95;;
55330;SDS011;58851;42.984;20.336;2024-03-22T05:12:28;48.13;;;32.60;;
55330;SDS011;58851;42.984;20.336;2024-03-22T05:14:54;45.15;;;28.15;;
55330;SDS011;58851;42.984;20.336;2024-03-22T05:17:20;54.05;;;32.00;;
55330;SDS011;58851;42.984;20.336;2024-03-22T05:19:46;57.70;;;37.92;;
55330;SDS011;58851;42.984;20.336;2024-03-22T05:22:12;114.63;;;73.25;;
55330;SDS011;58851;42.984;20.336;2024-03-22T05:24:38;75.47;;;46.30;;
55330;SDS011;58851;42.984;20.336;2024-03-22T05:27:04;44.67;;;29.80;;
55330;SDS011;58851;42.984;20.336;2024-03-22T05:29:30;40.75;;;29.10;;
55330;SDS011;58851;42.984;20.336;2024-03-22T05:31:55;44.10;;;28.33;;
55330;SDS011;58851;42.984;20.336;2024-03-22T05:34:22;43.10;;;28.73;;
55330;SDS011;58851;42.984;20.336;2024-03-22T05:36:48;43.38;;;27.73;;
55330;SDS011;58851;42.984;20.336;2024-03-22T05:39:14;38.45;;;26.95;;
55330;SDS011;58851;42.984;20.336;2024-03-22T05:41:40;37.55;;;24.88;;
55330;SDS011;58851;42.984;20.336;2024-03-22T05:44:06;36.10;;;23.10;;
55330;SDS011;58851;42.984;20.336;2024-03-22T05:46:32;39.83;;;25.17;;
55330;SDS011;58851;42.984;20.336;2024-03-22T05:48:58;36.50;;;24.55;;
55330;SDS011;58851;42.984;20.336;2024-03-22T05:51:24;122.47;;;63.42;;
55330;SDS011;58851;42.984;20.336;2024-03-22T05:53:50;79.47;;;62.05;;
55330;SDS011;58851;42.984;20.336;2024-03-22T05:56:16;69.35;;;50.55;;
55330;SDS011;58851;42.984;20.336;2024-03-22T05:58:42;98.25;;;63.08;;
55330;SDS011;58851;42.984;20.336;2024-03-22T06:01:08;105.90;;;68.40;;
55330;SDS011;58851;42.984;20.336;2024-03-22T06:03:34;93.75;;;59.53;;
55330;SDS011;58851;42.984;20.336;2024-03-22T06:06:00;70.97;;;47.92;;
55330;SDS011;58851;42.984;20.336;2024-03-22T06:08:29;74.50;;;47.88;;
55330;SDS011;58851;42.984;20.336;2024-03-22T06:10:56;79.55;;;53.13;;
55330;SDS011;58851;42.984;20.336;2024-03-22T06:13:22;85.55;;;56.33;;
55330;SDS011;58851;42.984;20.336;2024-03-22T06:15:48;86.45;;;54.00;;
55330;SDS011;58851;42.984;20.336;2024-03-22T06:18:14;88.20;;;59.08;;
55330;SDS011;58851;42.984;20.336;2024-03-22T06:20:40;84.55;;;54.35;;
55330;SDS011;58851;42.984;20.336;2024-03-22T06:23:07;78.45;;;50.03;;
55330;SDS011;58851;42.984;20.336;2024-03-22T06:25:33;82.07;;;52.35;;
55330;SDS011;58851;42.984;20.336;2024-03-22T06:27:59;84.07;;;53.03;;
55330;SDS011;58851;42.984;20.336;2024-03-22T06:30:25;93.53;;;57.75;;
55330;SDS011;58851;42.984;20.336;2024-03-22T06:32:52;90.60;;;60.00;;
55330;SDS011;58851;42.984;20.336;2024-03-22T06:35:18;84.10;;;55.05;;
55330;SDS011;58851;42.984;20.336;2024-03-22T06:37:44;78.47;;;53.45;;
55330;SDS011;58851;42.984;20.336;2024-03-22T06:40:10;80.68;;;53.88;;
55330;SDS011;58851;42.984;20.336;2024-03-22T06:42:36;81.35;;;54.50;;
55330;SDS011;58851;42.984;20.336;2024-03-22T06:45:02;82.82;;;53.58;;
55330;SDS011;58851;42.984;20.336;2024-03-22T06:47:28;81.97;;;55.08;;
55330;SDS011;58851;42.984;20.336;2024-03-22T06:49:54;81.28;;;55.97;;
55330;SDS011;58851;42.984;20.336;2024-03-22T06:52:20;90.45;;;56.92;;
55330;SDS011;58851;42.984;20.336;2024-03-22T06:54:46;89.05;;;59.35;;
55330;SDS011;58851;42.984;20.336;2024-03-22T06:57:12;84.57;;;57.42;;
55330;SDS011;58851;42.984;20.336;2024-03-22T06:59:38;86.97;;;58.30;;
55330;SDS011;58851;42.984;20.336;2024-03-22T07:02:03;91.85;;;60.50;;
55330;SDS011;58851;42.984;20.336;2024-03-22T07:04:30;84.32;;;57.55;;
55330;SDS011;58851;42.984;20.336;2024-03-22T07:06:56;97.97;;;66.90;;
55330;SDS011;58851;42.984;20.336;2024-03-22T07:09:21;106.75;;;69.90;;
55330;SDS011;58851;42.984;20.336;2024-03-22T07:11:47;129.70;;;86.40;;
55330;SDS011;58851;42.984;20.336;2024-03-22T07:14:13;146.80;;;95.40;;
55330;SDS011;58851;42.984;20.336;2024-03-22T07:16:39;108.82;;;78.32;;
55330;SDS011;58851;42.984;20.336;2024-03-22T07:19:04;98.28;;;62.05;;
55330;SDS011;58851;42.984;20.336;2024-03-22T07:21:31;95.65;;;62.45;;
55330;SDS011;58851;42.984;20.336;2024-03-22T07:23:56;90.47;;;60.63;;
55330;SDS011;58851;42.984;20.336;2024-03-22T07:26:22;96.90;;;61.83;;
55330;SDS011;58851;42.984;20.336;2024-03-22T07:28:48;84.72;;;59.70;;
55330;SDS011;58851;42.984;20.336;2024-03-22T07:31:14;84.78;;;57.28;;
55330;SDS011;58851;42.984;20.336;2024-03-22T07:33:40;70.55;;;49.80;;
55330;SDS011;58851;42.984;20.336;2024-03-22T07:36:06;78.10;;;51.17;;
55330;SDS011;58851;42.984;20.336;2024-03-22T07:38:32;72.90;;;50.50;;
55330;SDS011;58851;42.984;20.336;2024-03-22T07:40:58;74.28;;;50.13;;
55330;SDS011;58851;42.984;20.336;2024-03-22T07:43:23;60.38;;;42.00;;
55330;SDS011;58851;42.984;20.336;2024-03-22T07:45:49;55.05;;;41.90;;
55330;SDS011;58851;42.984;20.336;2024-03-22T07:48:15;51.60;;;33.88;;
55330;SDS011;58851;42.984;20.336;2024-03-22T07:50:41;44.63;;;31.50;;
55330;SDS011;58851;42.984;20.336;2024-03-22T07:53:07;46.22;;;31.77;;
55330;SDS011;58851;42.984;20.336;2024-03-22T07:55:33;50.60;;;31.55;;
55330;SDS011;58851;42.984;20.336;2024-03-22T07:57:59;43.80;;;31.30;;
55330;SDS011;58851;42.984;20.336;2024-03-22T08:00:24;47.97;;;31.02;;
55330;SDS011;58851;42.984;20.336;2024-03-22T08:02:51;47.45;;;32.15;;
55330;SDS011;58851;42.984;20.336;2024-03-22T08:05:17;55.47;;;38.50;;
55330;SDS011;58851;42.984;20.336;2024-03-22T08:07:43;49.90;;;33.38;;
55330;SDS011;58851;42.984;20.336;2024-03-22T08:10:09;47.90;;;32.22;;
55330;SDS011;58851;42.984;20.336;2024-03-22T08:12:35;45.28;;;31.48;;
55330;SDS011;58851;42.984;20.336;2024-03-22T08:15:01;46.55;;;32.30;;
55330;SDS011;58851;42.984;20.336;2024-03-22T08:17:27;54.58;;;37.95;;
55330;SDS011;58851;42.984;20.336;2024-03-22T08:19:53;80.13;;;51.83;;
55330;SDS011;58851;42.984;20.336;2024-03-22T08:22:19;95.05;;;60.35;;
55330;SDS011;58851;42.984;20.336;2024-03-22T08:24:45;75.22;;;47.75;;
55330;SDS011;58851;42.984;20.336;2024-03-22T08:27:11;50.33;;;33.85;;
55330;SDS011;58851;42.984;20.336;2024-03-22T08:29:37;64.10;;;43.13;;
55330;SDS011;58851;42.984;20.336;2024-03-22T08:32:05;74.50;;;47.28;;
55330;SDS011;58851;42.984;20.336;2024-03-22T08:34:31;100.45;;;63.13;;
55330;SDS011;58851;42.984;20.336;2024-03-22T08:36:57;83.30;;;50.35;;
55330;SDS011;58851;42.984;20.336;2024-03-22T08:39:23;70.32;;;46.67;;
55330;SDS011;58851;42.984;20.336;2024-03-22T08:41:49;68.47;;;43.58;;
55330;SDS011;58851;42.984;20.336;2024-03-22T08:44:16;58.08;;;35.90;;
55330;SDS011;58851;42.984;20.336;2024-03-22T08:46:42;51.40;;;32.22;;
55330;SDS011;58851;42.984;20.336;2024-03-22T08:49:07;41.00;;;25.52;;
55330;SDS011;58851;42.984;20.336;2024-03-22T08:51:33;31.85;;;22.58;;
55330;SDS011;58851;42.984;20.336;2024-03-22T08:53:59;31.92;;;21.65;;
55330;SDS011;58851;42.984;20.336;2024-03-22T08:56:26;28.63;;;20.27;;
55330;SDS011;58851;42.984;20.336;2024-03-22T08:58:52;28.00;;;17.30;;
55330;SDS011;58851;42.984;20.336;2024-03-22T09:01:18;22.30;;;15.13;;
55330;SDS011;58851;42.984;20.336;2024-03-22T09:03:43;20.55;;;13.45;;
55330;SDS011;58851;42.984;20.336;2024-03-22T09:06:16;22.02;;;14.90;;
55330;SDS011;58851;42.984;20.336;2024-03-22T09:08:42;21.98;;;14.25;;
55330;SDS011;58851;42.984;20.336;2024-03-22T09:11:07;42.85;;;29.75;;
55330;SDS011;58851;42.984;20.336;2024-03-22T09:13:33;19.92;;;14.00;;
55330;SDS011;58851;42.984;20.336;2024-03-22T09:16:00;19.98;;;13.25;;
55330;SDS011;58851;42.984;20.336;2024-03-22T09:18:26;22.85;;;15.63;;
55330;SDS011;58851;42.984;20.336;2024-03-22T09:20:53;22.95;;;17.65;;
55330;SDS011;58851;42.984;20.336;2024-03-22T09:23:19;53.25;;;31.77;;
55330;SDS011;58851;42.984;20.336;2024-03-22T09:25:45;33.38;;;21.73;;
55330;SDS011;58851;42.984;20.336;2024-03-22T09:28:12;20.77;;;12.95;;
55330;SDS011;58851;42.984;20.336;2024-03-22T09:30:39;27.55;;;14.07;;
55330;SDS011;58851;42.984;20.336;2024-03-22T09:33:05;23.77;;;14.00;;
55330;SDS011;58851;42.984;20.336;2024-03-22T09:35:35;24.35;;;15.30;;
55330;SDS011;58851;42.984;20.336;2024-03-22T09:38:01;24.05;;;15.20;;
55330;SDS011;58851;42.984;20.336;2024-03-22T09:40:27;22.70;;;15.40;;
55330;SDS011;58851;42.984;20.336;2024-03-22T09:42:53;22.63;;;15.43;;
55330;SDS011;58851;42.984;20.336;2024-03-22T09:45:22;19.17;;;11.77;;
55330;SDS011;58851;42.984;20.336;2024-03-22T09:47:48;18.73;;;10.90;;
55330;SDS011;58851;42.984;20.336;2024-03-22T09:50:16;15.30;;;11.23;;
55330;SDS011;58851;42.984;20.336;2024-03-22T09:52:42;16.88;;;11.15;;
55330;SDS011;58851;42.984;20.336;2024-03-22T09:55:09;16.35;;;10.90;;
55330;SDS011;58851;42.984;20.336;2024-03-22T09:57:35;17.48;;;11.25;;
55330;SDS011;58851;42.984;20.336;2024-03-22T10:00:06;18.42;;;12.32;;
55330;SDS011;58851;42.984;20.336;2024-03-22T10:02:33;16.17;;;9.95;;
55330;SDS011;58851;42.984;20.336;2024-03-22T10:05:00;13.13;;;9.50;;
55330;SDS011;58851;42.984;20.336;2024-03-22T10:07:27;24.58;;;14.65;;
55330;SDS011;58851;42.984;20.336;2024-03-22T10:09:57;25.85;;;17.27;;
55330;SDS011;58851;42.984;20.336;2024-03-22T10:12:23;22.40;;;12.57;;
55330;SDS011;58851;42.984;20.336;2024-03-22T10:14:52;11.43;;;7.90;;
55330;SDS011;58851;42.984;20.336;2024-03-22T10:17:18;13.77;;;9.07;;
55330;SDS011;58851;42.984;20.336;2024-03-22T10:19:45;32.53;;;23.10;;
55330;SDS011;58851;42.984;20.336;2024-03-22T10:22:15;24.20;;;10.13;;
55330;SDS011;58851;42.984;20.336;2024-03-22T10:24:44;24.85;;;12.75;;
55330;SDS011;58851;42.984;20.336;2024-03-22T10:27:10;22.65;;;13.77;;
55330;SDS011;58851;42.984;20.336;2024-03-22T10:29:36;20.00;;;12.07;;
55330;SDS011;58851;42.984;20.336;2024-03-22T10:32:02;13.20;;;8.93;;
55330;SDS011;58851;42.984;20.336;2024-03-22T10:34:28;16.40;;;10.07;;
55330;SDS011;58851;42.984;20.336;2024-03-22T10:36:57;17.23;;;9.63;;
55330;SDS011;58851;42.984;20.336;2024-03-22T10:39:26;99.80;;;54.55;;
55330;SDS011;58851;42.984;20.336;2024-03-22T10:41:53;15.57;;;10.20;;
55330;SDS011;58851;42.984;20.336;2024-03-22T10:44:19;14.02;;;8.88;;
55330;SDS011;58851;42.984;20.336;2024-03-22T10:46:47;45.78;;;28.30;;
55330;SDS011;58851;42.984;20.336;2024-03-22T10:49:17;38.22;;;25.30;;
55330;SDS011;58851;42.984;20.336;2024-03-22T10:52:20;21.73;;;15.10;;
55330;SDS011;58851;42.984;20.336;2024-03-22T10:54:40;19.60;;;13.48;;
55330;SDS011;58851;42.984;20.336;2024-03-22T10:57:11;14.63;;;9.50;;
55330;SDS011;58851;42.984;20.336;2024-03-22T10:59:43;24.33;;;15.15;;
55330;SDS011;58851;42.984;20.336;2024-03-22T11:02:11;16.88;;;11.98;;
55330;SDS011;58851;42.984;20.336;2024-03-22T11:04:37;14.30;;;9.25;;
55330;SDS011;58851;42.984;20.336;2024-03-22T11:07:03;16.55;;;9.73;;
55330;SDS011;58851;42.984;20.336;2024-03-22T11:09:29;13.10;;;8.68;;
55330;SDS011;58851;42.984;20.336;2024-03-22T11:11:55;14.07;;;9.07;;
55330;SDS011;58851;42.984;20.336;2024-03-22T11:14:25;15.93;;;10.27;;
55330;SDS011;58851;42.984;20.336;2024-03-22T11:16:51;15.90;;;10.93;;
55330;SDS011;58851;42.984;20.336;2024-03-22T11:19:18;14.95;;;7.85;;
55330;SDS011;58851;42.984;20.336;2024-03-22T11:21:44;11.75;;;7.18;;
55330;SDS011;58851;42.984;20.336;2024-03-22T11:24:09;11.77;;;7.45;;
55330;SDS011;58851;42.984;20.336;2024-03-22T11:26:36;14.35;;;8.02;;
55330;SDS011;58851;42.984;20.336;2024-03-22T11:29:02;8.05;;;5.82;;
55330;SDS011;58851;42.984;20.336;2024-03-22T11:31:28;10.52;;;6.05;;
55330;SDS011;58851;42.984;20.336;2024-03-22T11:33:54;9.18;;;6.55;;
55330;SDS011;58851;42.984;20.336;2024-03-22T11:36:21;10.45;;;7.30;;
55330;SDS011;58851;42.984;20.336;2024-03-22T11:38:47;11.65;;;7.10;;
55330;SDS011;58851;42.984;20.336;2024-03-22T11:41:21;11.60;;;8.50;;
55330;SDS011;58851;42.984;20.336;2024-03-22T11:43:52;14.73;;;9.48;;
55330;SDS011;58851;42.984;20.336;2024-03-22T11:46:19;19.42;;;9.02;;
55330;SDS011;58851;42.984;20.336;2024-03-22T11:48:50;11.02;;;8.00;;
55330;SDS011;58851;42.984;20.336;2024-03-22T11:51:19;10.20;;;7.22;;
55330;SDS011;58851;42.984;20.336;2024-03-22T11:53:52;15.93;;;8.00;;
55330;SDS011;58851;42.984;20.336;2024-03-22T11:56:19;18.02;;;8.63;;
55330;SDS011;58851;42.984;20.336;2024-03-22T11:58:46;13.43;;;8.05;;
55330;SDS011;58851;42.984;20.336;2024-03-22T12:01:13;11.23;;;6.82;;
55330;SDS011;58851;42.984;20.336;2024-03-22T12:03:40;13.38;;;7.75;;
55330;SDS011;58851;42.984;20.336;2024-03-22T12:06:09;13.80;;;7.45;;
55330;SDS011;58851;42.984;20.336;2024-03-22T12:08:36;12.93;;;7.47;;
55330;SDS011;58851;42.984;20.336;2024-03-22T12:11:06;10.57;;;6.72;;
55330;SDS011;58851;42.984;20.336;2024-03-22T12:13:35;11.15;;;7.22;;
55330;SDS011;58851;42.984;20.336;2024-03-22T12:16:02;10.45;;;7.20;;
55330;SDS011;58851;42.984;20.336;2024-03-22T12:18:29;9.80;;;6.85;;
55330;SDS011;58851;42.984;20.336;2024-03-22T12:20:55;12.57;;;6.68;;
55330;SDS011;58851;42.984;20.336;2024-03-22T12:23:22;11.23;;;7.15;;
55330;SDS011;58851;42.984;20.336;2024-03-22T12:25:49;9.18;;;6.47;;
55330;SDS011;58851;42.984;20.336;2024-03-22T12:28:16;15.23;;;7.93;;
55330;SDS011;58851;42.984;20.336;2024-03-22T12:30:42;10.43;;;6.53;;
55330;SDS011;58851;42.984;20.336;2024-03-22T12:33:08;9.98;;;6.65;;
55330;SDS011;58851;42.984;20.336;2024-03-22T12:35:39;13.52;;;8.55;;
55330;SDS011;58851;42.984;20.336;2024-03-22T12:38:05;11.50;;;6.70;;
55330;SDS011;58851;42.984;20.336;2024-03-22T12:40:32;21.63;;;12.63;;
55330;SDS011;58851;42.984;20.336;2024-03-22T12:42:58;13.10;;;7.80;;
55330;SDS011;58851;42.984;20.336;2024-03-22T12:45:24;7.88;;;4.82;;
55330;SDS011;58851;42.984;20.336;2024-03-22T12:47:50;9.30;;;6.28;;
55330;SDS011;58851;42.984;20.336;2024-03-22T12:50:16;9.38;;;6.47;;
55330;SDS011;58851;42.984;20.336;2024-03-22T12:52:42;11.77;;;6.13;;
55330;SDS011;58851;42.984;20.336;2024-03-22T12:55:09;11.27;;;5.47;;
55330;SDS011;58851;42.984;20.336;2024-03-22T12:57:35;12.73;;;6.13;;
55330;SDS011;58851;42.984;20.336;2024-03-22T13:00:01;10.38;;;6.25;;
55330;SDS011;58851;42.984;20.336;2024-03-22T13:02:30;19.70;;;7.65;;
55330;SDS011;58851;42.984;20.336;2024-03-22T13:04:57;26.95;;;15.85;;
55330;SDS011;58851;42.984;20.336;2024-03-22T13:07:23;10.18;;;6.93;;
55330;SDS011;58851;42.984;20.336;2024-03-22T13:09:50;14.20;;;8.07;;
55330;SDS011;58851;42.984;20.336;2024-03-22T13:12:15;11.77;;;6.05;;
55330;SDS011;58851;42.984;20.336;2024-03-22T13:14:41;11.52;;;5.10;;
55330;SDS011;58851;42.984;20.336;2024-03-22T13:17:09;8.23;;;5.55;;
55330;SDS011;58851;42.984;20.336;2024-03-22T13:19:35;16.00;;;9.30;;
55330;SDS011;58851;42.984;20.336;2024-03-22T13:22:00;16.73;;;11.27;;
55330;SDS011;58851;42.984;20.336;2024-03-22T13:24:26;19.88;;;13.75;;
55330;SDS011;58851;42.984;20.336;2024-03-22T13:26:52;20.33;;;12.25;;
55330;SDS011;58851;42.984;20.336;2024-03-22T13:29:18;13.10;;;8.02;;
55330;SDS011;58851;42.984;20.336;2024-03-22T13:31:43;12.52;;;6.78;;
55330;SDS011;58851;42.984;20.336;2024-03-22T13:34:09;31.27;;;17.85;;
55330;SDS011;58851;42.984;20.336;2024-03-22T13:36:35;22.92;;;12.90;;
55330;SDS011;58851;42.984;20.336;2024-03-22T13:39:03;14.88;;;7.57;;
55330;SDS011;58851;42.984;20.336;2024-03-22T13:41:29;19.77;;;8.95;;
55330;SDS011;58851;42.984;20.336;2024-03-22T13:43:55;14.00;;;8.25;;
55330;SDS011;58851;42.984;20.336;2024-03-22T13:46:21;12.85;;;8.07;;
55330;SDS011;58851;42.984;20.336;2024-03-22T13:48:47;23.45;;;14.10;;
55330;SDS011;58851;42.984;20.336;2024-03-22T13:51:13;9.65;;;6.00;;
55330;SDS011;58851;42.984;20.336;2024-03-22T13:53:38;20.85;;;10.20;;
55330;SDS011;58851;42.984;20.336;2024-03-22T13:56:05;9.18;;;5.55;;
55330;SDS011;58851;42.984;20.336;2024-03-22T13:58:31;11.50;;;5.85;;
55330;SDS011;58851;42.984;20.336;2024-03-22T14:00:57;8.25;;;4.78;;
55330;SDS011;58851;42.984;20.336;2024-03-22T14:03:25;9.02;;;4.78;;
55330;SDS011;58851;42.984;20.336;2024-03-22T14:05:51;10.13;;;6.47;;
55330;SDS011;58851;42.984;20.336;2024-03-22T14:08:17;8.73;;;5.65;;
55330;SDS011;58851;42.984;20.336;2024-03-22T14:10:42;10.75;;;6.68;;